sensor_id;sensor_type;location;lat;lon;timestamp;pressure;altitude;pressure_sealevel;temperature;humidity
54306;BME280;66145;45.188;5.712;2023-04-15T00:00:35;98434.41;;;19.94;44.45
54306;BME280;66145;45.188;5.712;2023-04-15T00:03:01;98424.00;;;19.87;44.68
54306;BME280;66145;45.188;5.712;2023-04-15T00:05:28;98386.69;;;19.61;44.89
54306;BME280;66145;45.188;5.712;2023-04-15T00:07:54;98438.09;;;19.98;44.90
54306;BME280;66145;45.188;5.712;2023-04-15T00:10:19;98438.19;;;20.01;44.65
54306;BME280;66145;45.188;5.712;2023-04-15T00:12:45;98418.31;;;19.92;44.67
54306;BME280;66145;45.188;5.712;2023-04-15T00:15:10;98441.50;;;20.07;44.72
54306;BME280;66145;45.188;5.712;2023-04-15T00:17:36;98405.34;;;19.80;44.84
54306;BME280;66145;45.188;5.712;2023-04-15T00:20:03;98366.09;;;19.55;44.96
54306;BME280;66145;45.188;5.712;2023-04-15T00:22:30;98440.38;;;20.08;44.86
54306;BME280;66145;45.188;5.712;2023-04-15T00:24:56;98430.09;;;20.05;44.99
54306;BME280;66145;45.188;5.712;2023-04-15T00:27:22;98428.03;;;20.02;44.94
54306;BME280;66145;45.188;5.712;2023-04-15T00:29:47;98434.97;;;19.99;45.29
54306;BME280;66145;45.188;5.712;2023-04-15T00:32:13;98434.16;;;19.86;45.33
54306;BME280;66145;45.188;5.712;2023-04-15T00:34:38;98424.31;;;19.85;45.91
54306;BME280;66145;45.188;5.712;2023-04-15T00:37:04;98421.63;;;19.98;45.75
54306;BME280;66145;45.188;5.712;2023-04-15T00:39:29;98410.53;;;19.94;45.51
54306;BME280;66145;45.188;5.712;2023-04-15T00:41:55;98443.81;;;20.17;45.54
54306;BME280;66145;45.188;5.712;2023-04-15T00:44:21;98429.63;;;20.15;45.24
54306;BME280;66145;45.188;5.712;2023-04-15T00:46:49;98404.47;;;20.01;45.43
54306;BME280;66145;45.188;5.712;2023-04-15T00:49:15;98399.88;;;19.93;45.52
54306;BME280;66145;45.188;5.712;2023-04-15T00:51:42;98422.66;;;20.05;45.51
54306;BME280;66145;45.188;5.712;2023-04-15T00:54:07;98436.72;;;20.16;45.33
54306;BME280;66145;45.188;5.712;2023-04-15T00:56:35;98439.47;;;20.16;45.52
54306;BME280;66145;45.188;5.712;2023-04-15T00:59:02;98429.06;;;20.10;45.58
54306;BME280;66145;45.188;5.712;2023-04-15T01:01:27;98433.41;;;20.11;45.70
54306;BME280;66145;45.188;5.712;2023-04-15T01:03:55;98426.31;;;20.10;45.81
54306;BME280;66145;45.188;5.712;2023-04-15T01:06:23;98418.97;;;20.01;45.75
54306;BME280;66145;45.188;5.712;2023-04-15T01:08:48;98432.69;;;20.14;45.93
54306;BME280;66145;45.188;5.712;2023-04-15T01:11:14;98409.84;;;20.10;45.52
54306;BME280;66145;45.188;5.712;2023-04-15T01:13:40;98409.84;;;20.10;45.32
54306;BME280;66145;45.188;5.712;2023-04-15T01:16:06;98435.56;;;20.30;45.48
54306;BME280;66145;45.188;5.712;2023-04-15T01:18:33;98423.91;;;20.20;45.75
54306;BME280;66145;45.188;5.712;2023-04-15T01:21:00;98433.50;;;20.27;45.66
54306;BME280;66145;45.188;5.712;2023-04-15T01:23:28;98434.19;;;20.24;45.81
54306;BME280;66145;45.188;5.712;2023-04-15T01:25:54;98408.00;;;20.01;45.89
54306;BME280;66145;45.188;5.712;2023-04-15T01:28:20;98429.63;;;20.15;45.71
54306;BME280;66145;45.188;5.712;2023-04-15T01:30:46;98423.91;;;20.08;45.91
54306;BME280;66145;45.188;5.712;2023-04-15T01:33:12;98430.31;;;20.12;45.82
54306;BME280;66145;45.188;5.712;2023-04-15T01:35:37;98446.78;;;20.25;45.61
54306;BME280;66145;45.188;5.712;2023-04-15T01:38:05;98453.19;;;20.29;45.76
54306;BME280;66145;45.188;5.712;2023-04-15T01:40:32;98434.31;;;20.27;46.08
54306;BME280;66145;45.188;5.712;2023-04-15T01:42:58;98439.09;;;20.30;45.70
54306;BME280;66145;45.188;5.712;2023-04-15T01:45:23;98433.63;;;20.18;45.49
54306;BME280;66145;45.188;5.712;2023-04-15T01:47:49;98443.69;;;20.26;45.77
54306;BME280;66145;45.188;5.712;2023-04-15T01:50:14;98414.28;;;20.14;45.72
54306;BME280;66145;45.188;5.712;2023-04-15T01:52:40;98449.53;;;20.25;45.92
54306;BME280;66145;45.188;5.712;2023-04-15T01:55:06;98425.50;;;20.09;46.09
54306;BME280;66145;45.188;5.712;2023-04-15T01:57:32;98410.63;;;19.98;46.09
54306;BME280;66145;45.188;5.712;2023-04-15T01:59:58;98434.66;;;20.13;46.03
54306;BME280;66145;45.188;5.712;2023-04-15T02:02:26;98425.28;;;20.14;45.93
54306;BME280;66145;45.188;5.712;2023-04-15T02:04:51;98446.66;;;20.33;45.93
54306;BME280;66145;45.188;5.712;2023-04-15T02:07:17;98429.28;;;20.29;45.86
54306;BME280;66145;45.188;5.712;2023-04-15T02:09:43;98433.06;;;20.37;45.76
54306;BME280;66145;45.188;5.712;2023-04-15T02:12:10;98447.94;;;20.36;45.93
54306;BME280;66145;45.188;5.712;2023-04-15T02:14:35;98445.41;;;20.31;45.84
54306;BME280;66145;45.188;5.712;2023-04-15T02:17:01;98444.84;;;20.38;45.87
54306;BME280;66145;45.188;5.712;2023-04-15T02:19:32;98438.78;;;20.32;45.98
54306;BME280;66145;45.188;5.712;2023-04-15T02:21:57;98435.22;;;20.31;46.06
54306;BME280;66145;45.188;5.712;2023-04-15T02:24:22;98437.16;;;20.31;46.10
54306;BME280;66145;45.188;5.712;2023-04-15T02:26:48;98399.09;;;20.04;46.15
54306;BME280;66145;45.188;5.712;2023-04-15T02:29:13;98413.25;;;20.19;45.96
54306;BME280;66145;45.188;5.712;2023-04-15T02:31:38;98436.59;;;20.38;46.04
54306;BME280;66145;45.188;5.712;2023-04-15T02:34:06;98417.13;;;20.30;45.92
54306;BME280;66145;45.188;5.712;2023-04-15T02:36:32;98407.66;;;20.28;45.72
54306;BME280;66145;45.188;5.712;2023-04-15T02:38:58;98432.91;;;20.46;45.82
54306;BME280;66145;45.188;5.712;2023-04-15T02:41:24;98430.38;;;20.53;45.48
54306;BME280;66145;45.188;5.712;2023-04-15T02:43:51;98426.72;;;20.49;45.76
54306;BME280;66145;45.188;5.712;2023-04-15T02:46:17;98421.13;;;20.45;45.61
54306;BME280;66145;45.188;5.712;2023-04-15T02:48:42;98436.34;;;20.55;45.73
54306;BME280;66145;45.188;5.712;2023-04-15T02:51:19;98415.19;;;20.43;45.71
54306;BME280;66145;45.188;5.712;2023-04-15T02:53:48;98448.47;;;20.54;45.83
54306;BME280;66145;45.188;5.712;2023-04-15T02:56:14;98427.09;;;20.47;45.74
54306;BME280;66145;45.188;5.712;2023-04-15T02:58:41;98351.63;;;20.04;45.83
54306;BME280;66145;45.188;5.712;2023-04-15T03:01:06;98445.25;;;20.52;45.96
54306;BME280;66145;45.188;5.712;2023-04-15T03:03:34;98442.31;;;20.45;46.03
54306;BME280;66145;45.188;5.712;2023-04-15T03:06:00;98441.59;;;20.48;46.09
54306;BME280;66145;45.188;5.712;2023-04-15T03:08:25;98441.16;;;20.46;46.24
54306;BME280;66145;45.188;5.712;2023-04-15T03:10:51;98432.47;;;20.44;46.08
54306;BME280;66145;45.188;5.712;2023-04-15T03:13:17;98377.69;;;20.10;45.89
54306;BME280;66145;45.188;5.712;2023-04-15T03:15:45;98437.38;;;20.50;45.82
54306;BME280;66145;45.188;5.712;2023-04-15T03:18:10;98452.47;;;20.57;45.89
54306;BME280;66145;45.188;5.712;2023-04-15T03:20:36;98441.84;;;20.55;45.92
54306;BME280;66145;45.188;5.712;2023-04-15T03:23:01;98431.75;;;20.47;45.73
54306;BME280;66145;45.188;5.712;2023-04-15T03:25:26;98414.97;;;20.36;45.99
54306;BME280;66145;45.188;5.712;2023-04-15T03:27:52;98418.38;;;20.45;45.99
54306;BME280;66145;45.188;5.712;2023-04-15T03:30:17;98430.50;;;20.44;46.08
54306;BME280;66145;45.188;5.712;2023-04-15T03:32:42;98425.59;;;20.38;46.35
54306;BME280;66145;45.188;5.712;2023-04-15T03:35:08;98427.78;;;20.44;46.05
54306;BME280;66145;45.188;5.712;2023-04-15T03:37:33;98427.66;;;20.41;46.28
54306;BME280;66145;45.188;5.712;2023-04-15T03:39:59;98439.78;;;20.52;46.38
54306;BME280;66145;45.188;5.712;2023-04-15T03:42:24;98418.28;;;20.42;46.02
54306;BME280;66145;45.188;5.712;2023-04-15T03:44:50;98435.97;;;20.57;46.05
54306;BME280;66145;45.188;5.712;2023-04-15T03:47:15;98425.69;;;20.54;46.14
54306;BME280;66145;45.188;5.712;2023-04-15T03:49:40;98394.72;;;20.28;46.36
54306;BME280;66145;45.188;5.712;2023-04-15T03:52:06;98376.53;;;20.11;46.43
54306;BME280;66145;45.188;5.712;2023-04-15T03:54:31;98406.38;;;20.38;46.28
54306;BME280;66145;45.188;5.712;2023-04-15T03:56:56;98441.72;;;20.51;46.34
54306;BME280;66145;45.188;5.712;2023-04-15T03:59:22;98448.94;;;20.56;46.43
54306;BME280;66145;45.188;5.712;2023-04-15T04:01:48;98389.47;;;20.23;46.08
54306;BME280;66145;45.188;5.712;2023-04-15T04:04:13;98433.91;;;20.54;46.09
54306;BME280;66145;45.188;5.712;2023-04-15T04:06:38;98420.91;;;20.50;46.14
54306;BME280;66145;45.188;5.712;2023-04-15T04:09:04;98442.34;;;20.73;45.82
54306;BME280;66145;45.188;5.712;2023-04-15T04:11:29;98443.88;;;20.71;46.00
54306;BME280;66145;45.188;5.712;2023-04-15T04:13:55;98434.38;;;20.68;46.15
54306;BME280;66145;45.188;5.712;2023-04-15T04:16:21;98424.22;;;20.56;45.90
54306;BME280;66145;45.188;5.712;2023-04-15T04:18:46;98423.75;;;20.54;45.96
54306;BME280;66145;45.188;5.712;2023-04-15T04:21:11;98461.59;;;20.73;46.01
54306;BME280;66145;45.188;5.712;2023-04-15T04:23:37;98431.63;;;20.56;45.92
54306;BME280;66145;45.188;5.712;2023-04-15T04:26:02;98428.31;;;20.50;46.30
54306;BME280;66145;45.188;5.712;2023-04-15T04:28:28;98428.88;;;20.56;45.91
54306;BME280;66145;45.188;5.712;2023-04-15T04:30:54;98446.06;;;20.65;45.96
54306;BME280;66145;45.188;5.712;2023-04-15T04:33:20;98396.19;;;20.38;45.87
54306;BME280;66145;45.188;5.712;2023-04-15T04:35:45;98450.50;;;20.70;46.16
54306;BME280;66145;45.188;5.712;2023-04-15T04:38:11;98448.91;;;20.69;46.08
54306;BME280;66145;45.188;5.712;2023-04-15T04:40:36;98452.34;;;20.65;46.27
54306;BME280;66145;45.188;5.712;2023-04-15T04:43:01;98445.59;;;20.63;46.10
54306;BME280;66145;45.188;5.712;2023-04-15T04:45:27;98447.44;;;20.59;46.39
54306;BME280;66145;45.188;5.712;2023-04-15T04:47:52;98426.25;;;20.47;46.06
54306;BME280;66145;45.188;5.712;2023-04-15T04:50:17;98440.56;;;20.65;46.18
54306;BME280;66145;45.188;5.712;2023-04-15T04:52:43;98460.34;;;20.71;46.28
54306;BME280;66145;45.188;5.712;2023-04-15T04:55:08;98460.44;;;20.74;46.12
54306;BME280;66145;45.188;5.712;2023-04-15T04:57:34;98466.06;;;20.78;45.88
54306;BME280;66145;45.188;5.712;2023-04-15T05:00:05;98459.44;;;20.79;46.02
54306;BME280;66145;45.188;5.712;2023-04-15T05:02:30;98463.69;;;20.76;45.74
54306;BME280;66145;45.188;5.712;2023-04-15T05:04:56;98464.25;;;20.82;45.75
54306;BME280;66145;45.188;5.712;2023-04-15T05:07:21;98461.50;;;20.82;45.80
54306;BME280;66145;45.188;5.712;2023-04-15T05:09:47;98436.75;;;20.70;45.68
54306;BME280;66145;45.188;5.712;2023-04-15T05:12:12;98454.50;;;20.72;45.94
54306;BME280;66145;45.188;5.712;2023-04-15T05:14:40;98452.22;;;20.74;45.80
54306;BME280;66145;45.188;5.712;2023-04-15T05:17:07;98457.50;;;20.67;45.89
54306;BME280;66145;45.188;5.712;2023-04-15T05:19:32;98458.97;;;20.64;45.92
54306;BME280;66145;45.188;5.712;2023-04-15T05:21:57;98476.38;;;20.69;45.90
54306;BME280;66145;45.188;5.712;2023-04-15T05:24:23;98452.38;;;20.53;46.40
54306;BME280;66145;45.188;5.712;2023-04-15T05:26:48;98436.22;;;20.39;46.30
54306;BME280;66145;45.188;5.712;2023-04-15T05:29:13;98445.72;;;20.54;45.98
54306;BME280;66145;45.188;5.712;2023-04-15T05:31:39;98458.88;;;20.61;46.04
54306;BME280;66145;45.188;5.712;2023-04-15T05:34:04;98456.22;;;20.64;46.13
54306;BME280;66145;45.188;5.712;2023-04-15T05:36:31;98451.31;;;20.58;46.07
54306;BME280;66145;45.188;5.712;2023-04-15T05:38:56;98464.69;;;20.72;46.29
54306;BME280;66145;45.188;5.712;2023-04-15T05:41:22;98455.91;;;20.66;46.33
54306;BME280;66145;45.188;5.712;2023-04-15T05:43:47;98465.28;;;20.65;46.13
54306;BME280;66145;45.188;5.712;2023-04-15T05:46:13;98477.53;;;20.67;45.97
54306;BME280;66145;45.188;5.712;2023-04-15T05:48:38;98487.28;;;20.65;46.42
54306;BME280;66145;45.188;5.712;2023-04-15T05:51:03;98468.28;;;20.47;46.45
54306;BME280;66145;45.188;5.712;2023-04-15T05:53:29;98472.97;;;20.47;46.46
54306;BME280;66145;45.188;5.712;2023-04-15T05:55:54;98454.22;;;20.24;46.94
54306;BME280;66145;45.188;5.712;2023-04-15T05:58:20;98438.78;;;20.19;46.91
54306;BME280;66145;45.188;5.712;2023-04-15T06:00:45;98453.19;;;20.29;46.86
54306;BME280;66145;45.188;5.712;2023-04-15T06:03:11;98462.44;;;20.36;46.64
54306;BME280;66145;45.188;5.712;2023-04-15T06:05:37;98455.94;;;20.29;46.93
54306;BME280;66145;45.188;5.712;2023-04-15T06:08:02;98472.75;;;20.40;46.89
54306;BME280;66145;45.188;5.712;2023-04-15T06:10:28;98481.09;;;20.43;47.01
54306;BME280;66145;45.188;5.712;2023-04-15T06:12:53;98475.16;;;20.41;46.98
54306;BME280;66145;45.188;5.712;2023-04-15T06:15:18;98457.53;;;20.30;47.00
54306;BME280;66145;45.188;5.712;2023-04-15T06:17:44;98450.34;;;20.25;46.92
54306;BME280;66145;45.188;5.712;2023-04-15T06:20:10;98438.88;;;20.23;46.99
54306;BME280;66145;45.188;5.712;2023-04-15T06:22:36;98468.88;;;20.41;46.91
54306;BME280;66145;45.188;5.712;2023-04-15T06:25:03;98454.44;;;20.31;47.11
54306;BME280;66145;45.188;5.712;2023-04-15T06:27:28;98470.94;;;20.44;47.04
54306;BME280;66145;45.188;5.712;2023-04-15T06:29:54;98455.56;;;20.30;47.03
54306;BME280;66145;45.188;5.712;2023-04-15T06:32:20;98435.91;;;20.16;46.96
54306;BME280;66145;45.188;5.712;2023-04-15T06:34:45;98481.09;;;20.43;46.98
54306;BME280;66145;45.188;5.712;2023-04-15T06:37:10;98442.78;;;20.22;47.15
54306;BME280;66145;45.188;5.712;2023-04-15T06:39:40;98470.69;;;20.36;47.22
54306;BME280;66145;45.188;5.712;2023-04-15T06:42:07;98482.50;;;20.37;47.13
54306;BME280;66145;45.188;5.712;2023-04-15T06:44:35;98485.25;;;20.37;46.96
54306;BME280;66145;45.188;5.712;2023-04-15T06:47:01;98487.97;;;20.37;47.11
54306;BME280;66145;45.188;5.712;2023-04-15T06:49:46;98486.47;;;20.40;46.92
54306;BME280;66145;45.188;5.712;2023-04-15T06:52:12;98485.66;;;20.39;47.10
54306;BME280;66145;45.188;5.712;2023-04-15T06:54:52;98498.25;;;20.40;46.70
54306;BME280;66145;45.188;5.712;2023-04-15T06:57:17;98472.97;;;20.22;47.12
54306;BME280;66145;45.188;5.712;2023-04-15T06:59:43;98493.22;;;20.30;47.13
54306;BME280;66145;45.188;5.712;2023-04-15T07:02:11;98490.84;;;20.28;47.05
54306;BME280;66145;45.188;5.712;2023-04-15T07:04:36;98502.03;;;20.35;47.01
54306;BME280;66145;45.188;5.712;2023-04-15T07:07:02;98491.84;;;20.24;46.78
54306;BME280;66145;45.188;5.712;2023-04-15T07:09:27;98485.56;;;20.11;47.26
54306;BME280;66145;45.188;5.712;2023-04-15T07:11:52;98500.19;;;20.15;47.22
54306;BME280;66145;45.188;5.712;2023-04-15T07:14:18;98502.03;;;20.23;47.14
54306;BME280;66145;45.188;5.712;2023-04-15T07:16:43;98507.31;;;20.28;47.24
54306;BME280;66145;45.188;5.712;2023-04-15T07:19:09;98510.84;;;20.29;47.17
54306;BME280;66145;45.188;5.712;2023-04-15T07:21:34;98504.56;;;20.28;47.08
54306;BME280;66145;45.188;5.712;2023-04-15T07:24:00;98505.16;;;20.34;47.14
54306;BME280;66145;45.188;5.712;2023-04-15T07:26:25;98483.41;;;20.29;46.99
54306;BME280;66145;45.188;5.712;2023-04-15T07:28:50;98485.78;;;20.30;47.17
54306;BME280;66145;45.188;5.712;2023-04-15T07:31:16;98444.84;;;20.13;47.19
54306;BME280;66145;45.188;5.712;2023-04-15T07:33:41;98426.88;;;20.03;47.11
54306;BME280;66145;45.188;5.712;2023-04-15T07:36:07;98435.81;;;20.12;47.07
54306;BME280;66145;45.188;5.712;2023-04-15T07:38:32;98382.81;;;19.74;47.17
54306;BME280;66145;45.188;5.712;2023-04-15T07:40:57;98454.78;;;20.17;47.55
54306;BME280;66145;45.188;5.712;2023-04-15T07:43:23;98463.59;;;20.11;47.19
54306;BME280;66145;45.188;5.712;2023-04-15T07:45:48;98474.59;;;20.11;47.25
54306;BME280;66145;45.188;5.712;2023-04-15T07:48:14;98518.53;;;20.23;47.10
54306;BME280;66145;45.188;5.712;2023-04-15T07:50:39;98557.66;;;20.32;46.95
54306;BME280;66145;45.188;5.712;2023-04-15T07:53:05;98534.88;;;20.32;47.21
54306;BME280;66145;45.188;5.712;2023-04-15T07:55:31;98517.69;;;20.23;47.02
54306;BME280;66145;45.188;5.712;2023-04-15T07:57:56;98526.44;;;20.37;47.33
54306;BME280;66145;45.188;5.712;2023-04-15T08:00:22;98498.47;;;20.10;47.09
54306;BME280;66145;45.188;5.712;2023-04-15T08:02:48;98545.19;;;20.35;47.09
54306;BME280;66145;45.188;5.712;2023-04-15T08:05:14;98505.09;;;19.97;47.23
54306;BME280;66145;45.188;5.712;2023-04-15T08:07:40;98554.22;;;20.23;47.27
54306;BME280;66145;45.188;5.712;2023-04-15T08:10:06;98537.50;;;20.16;46.98
54306;BME280;66145;45.188;5.712;2023-04-15T08:12:31;98560.63;;;20.27;47.11
54306;BME280;66145;45.188;5.712;2023-04-15T08:14:57;98550.44;;;20.28;47.25
54306;BME280;66145;45.188;5.712;2023-04-15T08:17:23;98547.59;;;20.24;47.25
54306;BME280;66145;45.188;5.712;2023-04-15T08:19:48;98525.25;;;20.26;47.13
54306;BME280;66145;45.188;5.712;2023-04-15T08:22:14;98529.72;;;20.30;46.70
54306;BME280;66145;45.188;5.712;2023-04-15T08:24:39;98530.91;;;20.29;46.66
54306;BME280;66145;45.188;5.712;2023-04-15T08:27:05;98540.28;;;20.28;46.67
54306;BME280;66145;45.188;5.712;2023-04-15T08:29:31;98552.28;;;20.36;46.88
54306;BME280;66145;45.188;5.712;2023-04-15T08:31:58;98558.47;;;20.45;46.64
54306;BME280;66145;45.188;5.712;2023-04-15T08:34:23;98536.97;;;20.35;46.75
54306;BME280;66145;45.188;5.712;2023-04-15T08:36:49;98562.81;;;20.46;46.41
54306;BME280;66145;45.188;5.712;2023-04-15T08:39:14;98538.88;;;20.34;46.30
54306;BME280;66145;45.188;5.712;2023-04-15T08:41:45;98549.53;;;20.36;46.27
54306;BME280;66145;45.188;5.712;2023-04-15T08:44:14;98529.59;;;20.27;45.98
54306;BME280;66145;45.188;5.712;2023-04-15T08:46:40;98566.03;;;20.48;46.27
54306;BME280;66145;45.188;5.712;2023-04-15T08:49:10;98568.78;;;20.48;46.14
54306;BME280;66145;45.188;5.712;2023-04-15T08:51:38;98520.56;;;20.14;46.00
54306;BME280;66145;45.188;5.712;2023-04-15T08:54:04;98564.06;;;20.49;46.12
54306;BME280;66145;45.188;5.712;2023-04-15T08:56:30;98571.41;;;20.45;46.14
54306;BME280;66145;45.188;5.712;2023-04-15T08:59:00;98582.97;;;20.50;45.96
54306;BME280;66145;45.188;5.712;2023-04-15T09:01:26;98555.81;;;20.36;45.98
54306;BME280;66145;45.188;5.712;2023-04-15T09:03:52;98561.56;;;20.44;45.87
54306;BME280;66145;45.188;5.712;2023-04-15T09:06:21;98578.84;;;20.57;45.77
54306;BME280;66145;45.188;5.712;2023-04-15T09:08:47;98582.88;;;20.59;45.94
54306;BME280;66145;45.188;5.712;2023-04-15T09:11:13;98527.78;;;20.31;45.54
54306;BME280;66145;45.188;5.712;2023-04-15T09:13:38;98572.56;;;20.56;45.59
54306;BME280;66145;45.188;5.712;2023-04-15T09:16:04;98557.31;;;20.46;45.40
54306;BME280;66145;45.188;5.712;2023-04-15T09:18:32;98595.34;;;20.69;45.47
54306;BME280;66145;45.188;5.712;2023-04-15T09:21:09;98586.41;;;20.60;45.45
54306;BME280;66145;45.188;5.712;2023-04-15T09:23:41;98603.00;;;20.63;45.65
54306;BME280;66145;45.188;5.712;2023-04-15T09:26:17;98594.06;;;20.54;45.38
54306;BME280;66145;45.188;5.712;2023-04-15T09:28:43;98571.94;;;20.38;45.59
54306;BME280;66145;45.188;5.712;2023-04-15T09:31:08;98609.06;;;20.57;45.41
54306;BME280;66145;45.188;5.712;2023-04-15T09:33:34;98608.06;;;20.61;45.72
54306;BME280;66145;45.188;5.712;2023-04-15T09:36:03;98589.16;;;20.47;45.49
54306;BME280;66145;45.188;5.712;2023-04-15T09:38:29;98596.81;;;20.54;45.58
54306;BME280;66145;45.188;5.712;2023-04-15T09:40:56;98582.72;;;20.43;45.54
54306;BME280;66145;45.188;5.712;2023-04-15T09:43:22;98586.97;;;20.28;45.83
54306;BME280;66145;45.188;5.712;2023-04-15T09:45:52;98587.94;;;20.11;46.24
54306;BME280;66145;45.188;5.712;2023-04-15T09:48:23;98656.09;;;20.43;46.02
54306;BME280;66145;45.188;5.712;2023-04-15T09:50:51;98605.06;;;20.08;46.24
54306;BME280;66145;45.188;5.712;2023-04-15T09:53:22;98621.00;;;20.15;45.85
54306;BME280;66145;45.188;5.712;2023-04-15T09:55:52;98714.47;;;20.52;45.68
54306;BME280;66145;45.188;5.712;2023-04-15T10:00:50;98735.88;;;20.46;45.74
54306;BME280;66145;45.188;5.712;2023-04-15T10:03:26;98726.50;;;20.47;45.83
54306;BME280;66145;45.188;5.712;2023-04-15T10:05:54;98723.94;;;20.42;45.71
54306;BME280;66145;45.188;5.712;2023-04-15T10:08:23;98703.91;;;20.29;45.72
54306;BME280;66145;45.188;5.712;2023-04-15T10:10:49;98705.72;;;20.25;46.13
54306;BME280;66145;45.188;5.712;2023-04-15T10:13:23;98679.50;;;19.94;46.30
54306;BME280;66145;45.188;5.712;2023-04-15T10:16:10;98723.41;;;20.15;46.56
54306;BME280;66145;45.188;5.712;2023-04-15T10:18:42;98721.91;;;20.18;46.24
54306;BME280;66145;45.188;5.712;2023-04-15T10:21:08;98719.28;;;20.21;46.10
54306;BME280;66145;45.188;5.712;2023-04-15T10:23:34;98692.94;;;20.08;46.46
54306;BME280;66145;45.188;5.712;2023-04-15T10:26:00;98678.50;;;19.99;46.26
54306;BME280;66145;45.188;5.712;2023-04-15T10:28:26;98713.44;;;20.11;46.39
54306;BME280;66145;45.188;5.712;2023-04-15T10:30:52;98716.19;;;20.11;46.30
54306;BME280;66145;45.188;5.712;2023-04-15T10:33:20;98706.78;;;19.90;46.64
54306;BME280;66145;45.188;5.712;2023-04-15T10:35:47;98698.50;;;19.99;46.40
54306;BME280;66145;45.188;5.712;2023-04-15T10:38:43;98710.81;;;20.14;46.36
54306;BME280;66145;45.188;5.712;2023-04-15T10:41:14;98684.91;;;20.03;46.41
54306;BME280;66145;45.188;5.712;2023-04-15T10:44:01;98693.78;;;20.21;46.04
54306;BME280;66145;45.188;5.712;2023-04-15T10:46:43;98669.34;;;20.07;46.04
54306;BME280;66145;45.188;5.712;2023-04-15T10:51:41;98622.44;;;19.57;46.32
54306;BME280;66145;45.188;5.712;2023-04-15T10:54:30;98696.72;;;20.16;46.04
54306;BME280;66145;45.188;5.712;2023-04-15T10:59:31;98704.81;;;20.00;46.34
54306;BME280;66145;45.188;5.712;2023-04-15T11:02:05;98697.44;;;19.91;46.53
54306;BME280;66145;45.188;5.712;2023-04-15T11:04:56;98708.41;;;19.91;46.51
54306;BME280;66145;45.188;5.712;2023-04-15T11:12:41;98678.00;;;19.75;46.60
54306;BME280;66145;45.188;5.712;2023-04-15T11:15:27;98698.50;;;19.99;46.40
54306;BME280;66145;45.188;5.712;2023-04-15T11:17:54;98668.09;;;19.83;46.20
54306;BME280;66145;45.188;5.712;2023-04-15T11:20:20;98687.38;;;19.96;46.18
54306;BME280;66145;45.188;5.712;2023-04-15T11:22:50;98691.75;;;19.97;46.35
54306;BME280;66145;45.188;5.712;2023-04-15T11:25:27;98696.44;;;19.96;46.19
54306;BME280;66145;45.188;5.712;2023-04-15T11:27:53;98699.78;;;20.02;46.52
54306;BME280;66145;45.188;5.712;2023-04-15T11:30:21;98664.88;;;19.81;46.40
54306;BME280;66145;45.188;5.712;2023-04-15T11:32:51;98635.03;;;19.58;46.45
54306;BME280;66145;45.188;5.712;2023-04-15T11:35:17;98680.97;;;19.91;46.46
54306;BME280;66145;45.188;5.712;2023-04-15T11:37:44;98670.50;;;19.85;46.40
54306;BME280;66145;45.188;5.712;2023-04-15T11:40:10;98666.69;;;19.77;46.36
54306;BME280;66145;45.188;5.712;2023-04-15T11:42:36;98668.81;;;19.71;46.72
54306;BME280;66145;45.188;5.712;2023-04-15T11:45:14;98647.81;;;19.33;46.62
54306;BME280;66145;45.188;5.712;2023-04-15T11:47:41;98757.69;;;19.88;46.73
54306;BME280;66145;45.188;5.712;2023-04-15T11:50:31;98753.44;;;19.90;46.73
54306;BME280;66145;45.188;5.712;2023-04-15T11:53:00;98740.78;;;19.77;46.61
54306;BME280;66145;45.188;5.712;2023-04-15T11:55:27;98765.13;;;19.87;46.79
54306;BME280;66145;45.188;5.712;2023-04-15T12:00:38;98803.50;;;19.96;47.04
54306;BME280;66145;45.188;5.712;2023-04-15T12:03:29;98801.88;;;19.95;46.90
54306;BME280;66145;45.188;5.712;2023-04-15T12:11:47;98770.28;;;19.80;47.08
54306;BME280;66145;45.188;5.712;2023-04-15T12:14:19;98800.59;;;19.84;47.14
54306;BME280;66145;45.188;5.712;2023-04-15T12:16:48;98802.22;;;19.85;47.35
54306;BME280;66145;45.188;5.712;2023-04-15T12:19:16;98809.47;;;19.89;47.14
54306;BME280;66145;45.188;5.712;2023-04-15T12:21:46;98791.28;;;19.76;46.84
54306;BME280;66145;45.188;5.712;2023-04-15T12:24:13;98812.22;;;19.89;46.89
54306;BME280;66145;45.188;5.712;2023-04-15T12:26:52;98801.63;;;19.79;47.14
54306;BME280;66145;45.188;5.712;2023-04-15T12:29:19;98825.28;;;19.93;47.20
54306;BME280;66145;45.188;5.712;2023-04-15T12:31:49;98815.31;;;19.88;47.05
54306;BME280;66145;45.188;5.712;2023-04-15T12:34:16;98831.91;;;19.91;47.01
54306;BME280;66145;45.188;5.712;2023-04-15T12:36:42;98806.50;;;19.73;47.18
54306;BME280;66145;45.188;5.712;2023-04-15T12:39:07;98834.38;;;19.84;47.08
54306;BME280;66145;45.188;5.712;2023-04-15T12:41:33;98819.41;;;19.73;47.27
54306;BME280;66145;45.188;5.712;2023-04-15T12:43:58;98827.25;;;19.83;47.22
54306;BME280;66145;45.188;5.712;2023-04-15T12:46:24;98822.56;;;19.84;47.18
54306;BME280;66145;45.188;5.712;2023-04-15T12:48:50;98790.25;;;19.59;46.86
54306;BME280;66145;45.188;5.712;2023-04-15T12:51:17;98816.47;;;19.78;46.79
54306;BME280;66145;45.188;5.712;2023-04-15T12:53:43;98833.22;;;19.85;46.97
54306;BME280;66145;45.188;5.712;2023-04-15T12:56:08;98824.69;;;19.87;46.67
54306;BME280;66145;45.188;5.712;2023-04-15T12:58:33;98808.75;;;19.71;46.85
54306;BME280;66145;45.188;5.712;2023-04-15T13:00:59;98812.47;;;19.75;46.77
54306;BME280;66145;45.188;5.712;2023-04-15T13:03:24;98831.63;;;19.84;46.85
54306;BME280;66145;45.188;5.712;2023-04-15T13:05:50;98830.19;;;19.78;46.67
54306;BME280;66145;45.188;5.712;2023-04-15T13:08:15;98837.75;;;19.81;46.64
54306;BME280;66145;45.188;5.712;2023-04-15T13:10:41;98799.31;;;19.60;46.86
54306;BME280;66145;45.188;5.712;2023-04-15T13:13:07;98833.75;;;19.79;46.74
54306;BME280;66145;45.188;5.712;2023-04-15T13:15:32;98836.81;;;19.77;46.60
54306;BME280;66145;45.188;5.712;2023-04-15T13:17:58;98808.66;;;19.59;46.64
54306;BME280;66145;45.188;5.712;2023-04-15T13:20:24;98839.91;;;19.75;46.38